sensor_id;sensor_type;location;lat;lon;timestamp;pressure;altitude;pressure_sealevel;temperature;humidity
84967;BME280;75275;51.348;12.358;2024-03-06T00:02:06;100697.38;;;5.51;70.21
84967;BME280;75275;51.348;12.358;2024-03-06T00:04:36;100699.78;;;5.60;70.07
84967;BME280;75275;51.348;12.358;2024-03-06T00:07:07;100700.63;;;5.60;71.23
84967;BME280;75275;51.348;12.358;2024-03-06T00:09:34;100692.81;;;5.52;69.24
84967;BME280;75275;51.348;12.358;2024-03-06T00:12:02;100696.66;;;5.44;69.56
84967;BME280;75275;51.348;12.358;2024-03-06T00:14:31;100702.19;;;5.38;68.45
84967;BME280;75275;51.348;12.358;2024-03-06T00:16:58;100700.69;;;5.42;68.94
84967;BME280;75275;51.348;12.358;2024-03-06T00:19:25;100697.88;;;5.48;69.05
84967;BME280;75275;51.348;12.358;2024-03-06T00:21:52;100706.84;;;5.49;69.01
84967;BME280;75275;51.348;12.358;2024-03-06T00:24:19;100704.38;;;5.59;68.89
84967;BME280;75275;51.348;12.358;2024-03-06T00:26:46;100705.72;;;5.68;68.43
84967;BME280;75275;51.348;12.358;2024-03-06T00:29:14;100709.16;;;5.75;68.83
84967;BME280;75275;51.348;12.358;2024-03-06T00:31:48;100710.03;;;5.88;68.94
84967;BME280;75275;51.348;12.358;2024-03-06T00:34:14;100718.34;;;5.93;70.13
84967;BME280;75275;51.348;12.358;2024-03-06T00:36:43;100727.34;;;5.93;69.51
84967;BME280;75275;51.348;12.358;2024-03-06T00:39:10;100726.94;;;5.90;68.56
84967;BME280;75275;51.348;12.358;2024-03-06T00:41:46;100728.56;;;5.79;69.77
84967;BME280;75275;51.348;12.358;2024-03-06T00:44:13;100726.56;;;5.74;68.85
84967;BME280;75275;51.348;12.358;2024-03-06T00:46:40;100741.78;;;5.64;70.97
84967;BME280;75275;51.348;12.358;2024-03-06T00:49:08;100745.03;;;5.54;70.17
84967;BME280;75275;51.348;12.358;2024-03-06T00:51:35;100748.78;;;5.41;69.61
84967;BME280;75275;51.348;12.358;2024-03-06T00:54:03;100749.44;;;5.37;70.81
84967;BME280;75275;51.348;12.358;2024-03-06T00:56:30;100747.88;;;5.29;70.57
84967;BME280;75275;51.348;12.358;2024-03-06T00:58:57;100756.59;;;5.19;71.02
84967;BME280;75275;51.348;12.358;2024-03-06T01:01:23;100747.69;;;5.12;71.27
84967;BME280;75275;51.348;12.358;2024-03-06T01:03:52;100751.50;;;5.04;71.57
84967;BME280;75275;51.348;12.358;2024-03-06T01:06:20;100754.09;;;4.99;71.83
84967;BME280;75275;51.348;12.358;2024-03-06T01:08:47;100753.56;;;4.91;71.88
84967;BME280;75275;51.348;12.358;2024-03-06T01:11:14;100762.59;;;4.85;72.37
84967;BME280;75275;51.348;12.358;2024-03-06T01:13:41;100765.19;;;4.79;72.08
84967;BME280;75275;51.348;12.358;2024-03-06T01:16:08;100761.00;;;4.77;72.54
84967;BME280;75275;51.348;12.358;2024-03-06T01:18:36;100767.38;;;4.64;72.44
84967;BME280;75275;51.348;12.358;2024-03-06T01:21:03;100768.31;;;4.58;73.04
84967;BME280;75275;51.348;12.358;2024-03-06T01:23:32;100767.09;;;4.54;71.64
84967;BME280;75275;51.348;12.358;2024-03-06T01:26:02;100772.97;;;4.51;72.36
84967;BME280;75275;51.348;12.358;2024-03-06T01:28:29;100777.19;;;4.47;72.92
84967;BME280;75275;51.348;12.358;2024-03-06T01:30:56;100768.03;;;4.41;72.98
84967;BME280;75275;51.348;12.358;2024-03-06T01:33:24;100770.34;;;4.38;73.73
84967;BME280;75275;51.348;12.358;2024-03-06T01:35:51;100771.06;;;4.26;72.99
84967;BME280;75275;51.348;12.358;2024-03-06T01:38:18;100774.66;;;4.20;73.27
84967;BME280;75275;51.348;12.358;2024-03-06T01:40:46;100786.41;;;4.14;73.55
84967;BME280;75275;51.348;12.358;2024-03-06T01:43:20;100790.78;;;4.15;73.28
84967;BME280;75275;51.348;12.358;2024-03-06T01:45:48;100785.94;;;4.17;73.10
84967;BME280;75275;51.348;12.358;2024-03-06T01:48:16;100789.97;;;4.15;73.07
84967;BME280;75275;51.348;12.358;2024-03-06T01:50:43;100790.00;;;4.08;73.85
84967;BME280;75275;51.348;12.358;2024-03-06T01:53:10;100794.91;;;3.93;74.23
84967;BME280;75275;51.348;12.358;2024-03-06T01:55:38;100789.72;;;3.84;73.60
84967;BME280;75275;51.348;12.358;2024-03-06T01:58:07;100790.19;;;3.81;74.49
84967;BME280;75275;51.348;12.358;2024-03-06T02:00:35;100790.38;;;3.80;73.94
84967;BME280;75275;51.348;12.358;2024-03-06T02:03:02;100793.91;;;3.80;73.67
84967;BME280;75275;51.348;12.358;2024-03-06T02:05:29;100793.09;;;3.80;74.13
84967;BME280;75275;51.348;12.358;2024-03-06T02:07:58;100789.56;;;3.79;73.65
84967;BME280;75275;51.348;12.358;2024-03-06T02:10:29;100798.91;;;3.83;73.35
84967;BME280;75275;51.348;12.358;2024-03-06T02:12:56;100796.44;;;3.82;74.02
84967;BME280;75275;51.348;12.358;2024-03-06T02:15:25;100789.38;;;3.74;74.22
84967;BME280;75275;51.348;12.358;2024-03-06T02:17:52;100799.38;;;3.74;74.27
84967;BME280;75275;51.348;12.358;2024-03-06T02:20:23;100796.25;;;3.70;74.62
84967;BME280;75275;51.348;12.358;2024-03-06T02:22:50;100798.56;;;3.67;74.15
84967;BME280;75275;51.348;12.358;2024-03-06T02:25:17;100806.97;;;3.58;73.97
84967;BME280;75275;51.348;12.358;2024-03-06T02:27:45;100808.69;;;3.53;74.92
84967;BME280;75275;51.348;12.358;2024-03-06T02:30:13;100810.34;;;3.54;74.25
84967;BME280;75275;51.348;12.358;2024-03-06T02:32:40;100807.78;;;3.59;74.10
84967;BME280;75275;51.348;12.358;2024-03-06T02:35:09;100815.06;;;3.65;74.24
84967;BME280;75275;51.348;12.358;2024-03-06T02:37:37;100816.94;;;3.65;74.51
84967;BME280;75275;51.348;12.358;2024-03-06T02:40:06;100820.25;;;3.67;74.32
84967;BME280;75275;51.348;12.358;2024-03-06T02:42:35;100818.59;;;3.66;74.01
84967;BME280;75275;51.348;12.358;2024-03-06T02:45:05;100826.97;;;3.64;74.66
84967;BME280;75275;51.348;12.358;2024-03-06T02:47:33;100816.56;;;3.61;74.67
84967;BME280;75275;51.348;12.358;2024-03-06T02:50:00;100827.00;;;3.51;74.38
84967;BME280;75275;51.348;12.358;2024-03-06T02:52:27;100832.88;;;3.41;74.46
84967;BME280;75275;51.348;12.358;2024-03-06T02:54:56;100828.94;;;3.37;74.59
84967;BME280;75275;51.348;12.358;2024-03-06T02:57:23;100834.75;;;3.41;75.39
84967;BME280;75275;51.348;12.358;2024-03-06T02:59:53;100832.44;;;3.44;74.71
84967;BME280;75275;51.348;12.358;2024-03-06T03:02:20;100833.50;;;3.50;74.87
84967;BME280;75275;51.348;12.358;2024-03-06T03:04:51;100836.78;;;3.52;74.33
84967;BME280;75275;51.348;12.358;2024-03-06T03:07:18;100837.84;;;3.51;74.61
84967;BME280;75275;51.348;12.358;2024-03-06T03:09:45;100838.69;;;3.45;74.98
84967;BME280;75275;51.348;12.358;2024-03-06T03:12:14;100842.69;;;3.42;74.78
84967;BME280;75275;51.348;12.358;2024-03-06T03:14:41;100847.88;;;3.44;75.40
84967;BME280;75275;51.348;12.358;2024-03-06T03:17:08;100839.59;;;3.32;75.58
84967;BME280;75275;51.348;12.358;2024-03-06T03:19:35;100845.66;;;3.21;75.92
84967;BME280;75275;51.348;12.358;2024-03-06T03:22:05;100843.38;;;3.18;76.19
84967;BME280;75275;51.348;12.358;2024-03-06T03:24:33;100839.63;;;3.12;76.25
84967;BME280;75275;51.348;12.358;2024-03-06T03:27:00;100845.91;;;3.06;76.04
84967;BME280;75275;51.348;12.358;2024-03-06T03:29:29;100842.38;;;2.99;75.96
84967;BME280;75275;51.348;12.358;2024-03-06T03:31:56;100853.41;;;3.04;75.93
84967;BME280;75275;51.348;12.358;2024-03-06T03:34:23;100854.66;;;3.01;75.97
84967;BME280;75275;51.348;12.358;2024-03-06T03:36:49;100853.81;;;3.07;75.92
84967;BME280;75275;51.348;12.358;2024-03-06T03:39:17;100859.22;;;3.07;75.81
84967;BME280;75275;51.348;12.358;2024-03-06T03:41:46;100864.22;;;3.10;75.37
84967;BME280;75275;51.348;12.358;2024-03-06T03:44:14;100868.81;;;3.10;76.14
84967;BME280;75275;51.348;12.358;2024-03-06T03:46:43;100863.41;;;3.10;75.28
84967;BME280;75275;51.348;12.358;2024-03-06T03:49:10;100869.66;;;3.10;74.99
84967;BME280;75275;51.348;12.358;2024-03-06T03:51:37;100866.28;;;3.15;75.20
84967;BME280;75275;51.348;12.358;2024-03-06T03:54:05;100866.09;;;3.23;75.61
84967;BME280;75275;51.348;12.358;2024-03-06T03:56:32;100872.53;;;3.22;75.63
84967;BME280;75275;51.348;12.358;2024-03-06T03:59:00;100869.63;;;3.17;75.81
84967;BME280;75275;51.348;12.358;2024-03-06T04:01:28;100862.97;;;3.13;75.45
84967;BME280;75275;51.348;12.358;2024-03-06T04:03:57;100879.22;;;3.13;75.97
84967;BME280;75275;51.348;12.358;2024-03-06T04:06:26;100871.53;;;3.10;75.62
84967;BME280;75275;51.348;12.358;2024-03-06T04:08:53;100878.19;;;3.07;75.29
84967;BME280;75275;51.348;12.358;2024-03-06T04:11:20;100876.31;;;3.08;75.82
84967;BME280;75275;51.348;12.358;2024-03-06T04:13:47;100880.47;;;3.04;76.17
84967;BME280;75275;51.348;12.358;2024-03-06T04:16:16;100883.00;;;2.99;76.85
84967;BME280;75275;51.348;12.358;2024-03-06T04:18:44;100873.81;;;2.93;75.77
84967;BME280;75275;51.348;12.358;2024-03-06T04:21:12;100884.66;;;2.86;76.20
84967;BME280;75275;51.348;12.358;2024-03-06T04:23:40;100879.06;;;2.88;76.61
84967;BME280;75275;51.348;12.358;2024-03-06T04:26:07;100884.88;;;2.78;76.16
84967;BME280;75275;51.348;12.358;2024-03-06T04:28:34;100891.53;;;2.76;76.63
84967;BME280;75275;51.348;12.358;2024-03-06T04:31:01;100888.41;;;2.79;76.25
84967;BME280;75275;51.348;12.358;2024-03-06T04:33:28;100908.63;;;2.76;76.56
84967;BME280;75275;51.348;12.358;2024-03-06T04:35:54;100905.91;;;2.76;77.14
84967;BME280;75275;51.348;12.358;2024-03-06T04:38:23;100908.63;;;2.76;76.77
84967;BME280;75275;51.348;12.358;2024-03-06T04:40:50;100906.53;;;2.72;77.08
84967;BME280;75275;51.348;12.358;2024-03-06T04:43:17;100897.38;;;2.66;76.84
84967;BME280;75275;51.348;12.358;2024-03-06T04:45:45;100906.53;;;2.58;77.08
84967;BME280;75275;51.348;12.358;2024-03-06T04:48:12;100895.47;;;2.53;77.67
84967;BME280;75275;51.348;12.358;2024-03-06T04:50:39;100898.19;;;2.47;77.75
84967;BME280;75275;51.348;12.358;2024-03-06T04:53:06;100908.38;;;2.45;77.42
84967;BME280;75275;51.348;12.358;2024-03-06T04:55:35;100904.63;;;2.46;77.78
84967;BME280;75275;51.348;12.358;2024-03-06T04:58:02;100902.34;;;2.42;77.67
84967;BME280;75275;51.348;12.358;2024-03-06T05:00:29;100906.31;;;2.40;78.03
84967;BME280;75275;51.348;12.358;2024-03-06T05:02:56;100903.78;;;2.38;78.02
84967;BME280;75275;51.348;12.358;2024-03-06T05:05:23;100904.19;;;2.35;78.44
84967;BME280;75275;51.348;12.358;2024-03-06T05:07:52;100912.31;;;2.35;78.65
84967;BME280;75275;51.348;12.358;2024-03-06T05:10:19;100903.38;;;2.35;78.60
84967;BME280;75275;51.348;12.358;2024-03-06T05:12:48;100914.19;;;2.35;77.93
84967;BME280;75275;51.348;12.358;2024-03-06T05:15:16;100916.69;;;2.36;78.28
84967;BME280;75275;51.348;12.358;2024-03-06T05:17:44;100915.44;;;2.39;77.76
84967;BME280;75275;51.348;12.358;2024-03-06T05:20:11;100917.53;;;2.37;78.09
84967;BME280;75275;51.348;12.358;2024-03-06T05:22:38;100922.09;;;2.43;78.13
84967;BME280;75275;51.348;12.358;2024-03-06T05:25:05;100922.53;;;2.47;78.01
84967;BME280;75275;51.348;12.358;2024-03-06T05:27:32;100918.81;;;2.48;78.13
84967;BME280;75275;51.348;12.358;2024-03-06T05:30:01;100927.53;;;2.50;77.50
84967;BME280;75275;51.348;12.358;2024-03-06T05:32:29;100938.34;;;2.50;77.37
84967;BME280;75275;51.348;12.358;2024-03-06T05:34:56;100934.41;;;2.52;77.22
84967;BME280;75275;51.348;12.358;2024-03-06T05:37:25;100940.66;;;2.53;77.42
84967;BME280;75275;51.348;12.358;2024-03-06T05:39:54;100938.75;;;2.47;77.49
84967;BME280;75275;51.348;12.358;2024-03-06T05:42:21;100946.66;;;2.41;77.15
84967;BME280;75275;51.348;12.358;2024-03-06T05:44:48;100942.94;;;2.49;77.12
84967;BME280;75275;51.348;12.358;2024-03-06T05:47:17;100955.41;;;2.44;77.05
84967;BME280;75275;51.348;12.358;2024-03-06T05:49:44;100949.38;;;2.41;77.31
84967;BME280;75275;51.348;12.358;2024-03-06T05:52:11;100966.25;;;2.44;77.50
84967;BME280;75275;51.348;12.358;2024-03-06T05:54:39;100964.16;;;2.46;77.39
84967;BME280;75275;51.348;12.358;2024-03-06T05:57:09;100966.25;;;2.44;77.38
84967;BME280;75275;51.348;12.358;2024-03-06T05:59:36;100966.25;;;2.44;76.88
84967;BME280;75275;51.348;12.358;2024-03-06T06:02:03;100964.97;;;2.46;77.34
84967;BME280;75275;51.348;12.358;2024-03-06T06:04:31;100965.81;;;2.53;76.76
84967;BME280;75275;51.348;12.358;2024-03-06T06:06:59;100965.22;;;2.58;76.37
84967;BME280;75275;51.348;12.358;2024-03-06T06:09:25;100966.88;;;2.59;76.91
84967;BME280;75275;51.348;12.358;2024-03-06T06:11:52;100979.78;;;2.63;76.39
84967;BME280;75275;51.348;12.358;2024-03-06T06:14:19;100986.88;;;2.64;76.25
84967;BME280;75275;51.348;12.358;2024-03-06T06:16:47;100978.34;;;2.68;76.53
84967;BME280;75275;51.348;12.358;2024-03-06T06:19:14;100987.72;;;2.78;76.08
84967;BME280;75275;51.348;12.358;2024-03-06T06:21:43;100995.84;;;2.78;75.42
84967;BME280;75275;51.348;12.358;2024-03-06T06:24:10;101002.31;;;2.84;75.98
84967;BME280;75275;51.348;12.358;2024-03-06T06:26:37;101003.75;;;2.86;75.49
84967;BME280;75275;51.348;12.358;2024-03-06T06:29:04;101001.06;;;2.93;75.13
84967;BME280;75275;51.348;12.358;2024-03-06T06:31:31;101000.03;;;3.01;74.81
84967;BME280;75275;51.348;12.358;2024-03-06T06:33:58;100997.75;;;3.04;75.18
84967;BME280;75275;51.348;12.358;2024-03-06T06:36:24;101005.88;;;3.11;74.76
84967;BME280;75275;51.348;12.358;2024-03-06T06:38:53;101006.53;;;3.20;74.18
84967;BME280;75275;51.348;12.358;2024-03-06T06:41:20;101011.09;;;3.19;73.54
84967;BME280;75275;51.348;12.358;2024-03-06T06:43:49;101011.31;;;3.24;74.08
84967;BME280;75275;51.348;12.358;2024-03-06T06:46:17;101020.88;;;3.33;74.25
84967;BME280;75275;51.348;12.358;2024-03-06T06:48:46;101016.09;;;3.42;73.55
84967;BME280;75275;51.348;12.358;2024-03-06T06:51:14;101021.06;;;3.52;72.84
84967;BME280;75275;51.348;12.358;2024-03-06T06:53:41;101020.88;;;3.60;72.95
84967;BME280;75275;51.348;12.358;2024-03-06T06:56:09;101023.78;;;3.65;72.48
84967;BME280;75275;51.348;12.358;2024-03-06T06:58:37;101026.69;;;3.70;72.95
84967;BME280;75275;51.348;12.358;2024-03-06T07:01:08;101031.66;;;3.86;72.17
84967;BME280;75275;51.348;12.358;2024-03-06T07:03:35;101046.66;;;3.96;71.47
84967;BME280;75275;51.348;12.358;2024-03-06T07:06:01;101036.63;;;4.03;71.34
84967;BME280;75275;51.348;12.358;2024-03-06T07:08:30;101041.63;;;4.06;71.41
84967;BME280;75275;51.348;12.358;2024-03-06T07:10:57;101045.00;;;3.95;71.65
84967;BME280;75275;51.348;12.358;2024-03-06T07:13:25;101040.41;;;3.95;72.08
84967;BME280;75275;51.348;12.358;2024-03-06T07:15:52;101042.91;;;4.03;71.49
84967;BME280;75275;51.348;12.358;2024-03-06T07:18:19;101045.38;;;4.12;71.53
84967;BME280;75275;51.348;12.358;2024-03-06T07:20:46;101050.13;;;4.29;70.92
84967;BME280;75275;51.348;12.358;2024-03-06T07:23:14;101050.91;;;4.43;70.19
84967;BME280;75275;51.348;12.358;2024-03-06T07:25:41;101061.94;;;4.42;70.27
84967;BME280;75275;51.348;12.358;2024-03-06T07:28:07;101055.28;;;4.38;70.40
84967;BME280;75275;51.348;12.358;2024-03-06T07:30:36;101061.69;;;4.56;70.50
84967;BME280;75275;51.348;12.358;2024-03-06T07:33:03;101070.19;;;4.73;69.80
84967;BME280;75275;51.348;12.358;2024-03-06T07:35:30;101064.72;;;4.80;68.01
84967;BME280;75275;51.348;12.358;2024-03-06T07:37:57;101075.06;;;4.96;69.00
84967;BME280;75275;51.348;12.358;2024-03-06T07:40:25;101075.56;;;5.12;68.20
84967;BME280;75275;51.348;12.358;2024-03-06T07:42:52;101080.78;;;5.20;67.83
84967;BME280;75275;51.348;12.358;2024-03-06T07:45:19;101085.66;;;5.36;68.00
84967;BME280;75275;51.348;12.358;2024-03-06T07:47:47;101085.91;;;5.60;67.16
84967;BME280;75275;51.348;12.358;2024-03-06T07:50:14;101082.66;;;5.69;66.27
84967;BME280;75275;51.348;12.358;2024-03-06T07:52:44;101087.47;;;5.74;65.77
84967;BME280;75275;51.348;12.358;2024-03-06T07:55:11;101087.38;;;5.80;66.40
84967;BME280;75275;51.348;12.358;2024-03-06T07:57:39;101096.50;;;5.93;65.88
84967;BME280;75275;51.348;12.358;2024-03-06T08:00:06;101103.19;;;5.90;65.12
84967;BME280;75275;51.348;12.358;2024-03-06T08:02:40;101101.50;;;5.96;64.77
84967;BME280;75275;51.348;12.358;2024-03-06T08:05:10;101104.38;;;6.01;65.56
84967;BME280;75275;51.348;12.358;2024-03-06T08:07:38;101103.81;;;6.17;64.68
84967;BME280;75275;51.348;12.358;2024-03-06T08:10:08;101094.91;;;6.29;64.52
84967;BME280;75275;51.348;12.358;2024-03-06T08:12:39;101097.31;;;6.37;63.85
84967;BME280;75275;51.348;12.358;2024-03-06T08:15:07;101098.22;;;6.31;63.71
84967;BME280;75275;51.348;12.358;2024-03-06T08:17:39;101107.00;;;6.33;64.91
84967;BME280;75275;51.348;12.358;2024-03-06T08:20:07;101107.44;;;6.30;65.32
84967;BME280;75275;51.348;12.358;2024-03-06T08:22:38;101108.66;;;6.34;64.11
84967;BME280;75275;51.348;12.358;2024-03-06T08:25:09;101119.41;;;6.47;63.68
84967;BME280;75275;51.348;12.358;2024-03-06T08:27:38;101131.13;;;6.47;64.06
84967;BME280;75275;51.348;12.358;2024-03-06T08:30:07;101125.44;;;6.49;63.31
84967;BME280;75275;51.348;12.358;2024-03-06T08:32:35;101121.88;;;6.48;64.35
84967;BME280;75275;51.348;12.358;2024-03-06T08:35:03;101139.22;;;6.72;63.60
84967;BME280;75275;51.348;12.358;2024-03-06T08:37:31;101132.34;;;7.00;63.00
84967;BME280;75275;51.348;12.358;2024-03-06T08:40:00;101136.47;;;6.91;63.15
84967;BME280;75275;51.348;12.358;2024-03-06T08:42:27;101140.53;;;7.00;63.04
84967;BME280;75275;51.348;12.358;2024-03-06T08:44:54;101139.69;;;7.30;62.49
84967;BME280;75275;51.348;12.358;2024-03-06T08:47:22;101139.56;;;7.24;61.93
84967;BME280;75275;51.348;12.358;2024-03-06T08:49:49;101137.63;;;7.13;62.76
84967;BME280;75275;51.348;12.358;2024-03-06T08:52:16;101138.16;;;7.04;62.64
84967;BME280;75275;51.348;12.358;2024-03-06T08:54:43;101146.34;;;7.04;63.28
84967;BME280;75275;51.348;12.358;2024-03-06T08:57:12;101146.56;;;7.20;61.75
84967;BME280;75275;51.348;12.358;2024-03-06T08:59:39;101149.69;;;7.36;62.42
84967;BME280;75275;51.348;12.358;2024-03-06T09:02:14;101146.69;;;7.67;61.83
84967;BME280;75275;51.348;12.358;2024-03-06T09:04:42;101145.28;;;7.77;61.18
84967;BME280;75275;51.348;12.358;2024-03-06T09:07:10;101142.19;;;7.73;60.81
84967;BME280;75275;51.348;12.358;2024-03-06T09:09:37;101138.66;;;7.84;60.75
84967;BME280;75275;51.348;12.358;2024-03-06T09:12:08;101145.16;;;7.83;60.45
84967;BME280;75275;51.348;12.358;2024-03-06T09:14:39;101144.44;;;7.88;61.53
84967;BME280;75275;51.348;12.358;2024-03-06T09:17:07;101137.34;;;7.99;61.14
84967;BME280;75275;51.348;12.358;2024-03-06T09:19:34;101147.56;;;8.03;60.65
84967;BME280;75275;51.348;12.358;2024-03-06T09:22:01;101140.94;;;8.11;60.72
84967;BME280;75275;51.348;12.358;2024-03-06T09:24:28;101140.94;;;7.99;60.32
84967;BME280;75275;51.348;12.358;2024-03-06T09:26:55;101149.81;;;8.30;60.14
84967;BME280;75275;51.348;12.358;2024-03-06T09:29:23;101146.63;;;10.38;55.47
84967;BME280;75275;51.348;12.358;2024-03-06T09:31:52;101142.56;;;14.37;45.00
84967;BME280;75275;51.348;12.358;2024-03-06T09:34:18;101128.53;;;17.74;35.66
84967;BME280;75275;51.348;12.358;2024-03-06T09:36:48;101123.03;;;20.12;30.46
84967;BME280;75275;51.348;12.358;2024-03-06T09:39:16;101116.22;;;21.15;27.28
84967;BME280;75275;51.348;12.358;2024-03-06T09:41:45;101113.13;;;21.17;27.72
84967;BME280;75275;51.348;12.358;2024-03-06T09:44:12;101111.88;;;22.78;26.55
84967;BME280;75275;51.348;12.358;2024-03-06T09:46:42;101107.81;;;24.46;23.66
84967;BME280;75275;51.348;12.358;2024-03-06T09:49:11;101116.06;;;25.41;21.92
84967;BME280;75275;51.348;12.358;2024-03-06T09:51:41;101118.88;;;25.69;20.19
84967;BME280;75275;51.348;12.358;2024-03-06T09:54:11;101111.28;;;25.29;21.27
84967;BME280;75275;51.348;12.358;2024-03-06T09:56:41;101116.84;;;26.10;20.36
84967;BME280;75275;51.348;12.358;2024-03-06T09:59:09;101119.91;;;26.80;19.75
84967;BME280;75275;51.348;12.358;2024-03-06T10:01:39;101132.41;;;26.99;18.64
84967;BME280;75275;51.348;12.358;2024-03-06T10:04:32;101135.41;;;25.99;19.22
84967;BME280;75275;51.348;12.358;2024-03-06T10:07:00;101136.38;;;25.90;19.45
84967;BME280;75275;51.348;12.358;2024-03-06T10:09:28;101130.19;;;25.57;20.30
84967;BME280;75275;51.348;12.358;2024-03-06T10:11:56;101141.28;;;23.35;22.88
84967;BME280;75275;51.348;12.358;2024-03-06T10:14:23;101144.75;;;20.33;27.50
84967;BME280;75275;51.348;12.358;2024-03-06T10:16:52;101160.91;;;17.60;32.24
84967;BME280;75275;51.348;12.358;2024-03-06T10:19:19;101163.63;;;15.53;36.44
84967;BME280;75275;51.348;12.358;2024-03-06T10:21:48;101176.75;;;14.62;38.97
84967;BME280;75275;51.348;12.358;2024-03-06T10:24:19;101177.34;;;14.03;40.72
84967;BME280;75275;51.348;12.358;2024-03-06T10:26:48;101168.50;;;13.65;41.32
84967;BME280;75275;51.348;12.358;2024-03-06T10:29:16;101167.22;;;13.05;43.30
84967;BME280;75275;51.348;12.358;2024-03-06T10:31:49;101165.56;;;12.46;44.91
84967;BME280;75275;51.348;12.358;2024-03-06T10:34:17;101168.56;;;12.44;44.70
84967;BME280;75275;51.348;12.358;2024-03-06T10:36:45;101168.50;;;12.34;45.08
84967;BME280;75275;51.348;12.358;2024-03-06T10:39:14;101172.31;;;11.69;45.95
84967;BME280;75275;51.348;12.358;2024-03-06T10:41:43;101174.25;;;11.41;47.92
84967;BME280;75275;51.348;12.358;2024-03-06T10:44:13;101179.69;;;10.70;49.84
84967;BME280;75275;51.348;12.358;2024-03-06T10:46:43;101182.19;;;10.50;49.14
84967;BME280;75275;51.348;12.358;2024-03-06T10:49:13;101181.91;;;10.51;49.00
84967;BME280;75275;51.348;12.358;2024-03-06T10:51:40;101180.16;;;10.84;49.22
84967;BME280;75275;51.348;12.358;2024-03-06T10:54:11;101174.84;;;11.21;48.52
84967;BME280;75275;51.348;12.358;2024-03-06T10:56:42;101177.13;;;11.51;47.80
84967;BME280;75275;51.348;12.358;2024-03-06T10:59:10;101174.84;;;11.70;46.79
84967;BME280;75275;51.348;12.358;2024-03-06T11:01:39;101177.88;;;11.74;46.05
84967;BME280;75275;51.348;12.358;2024-03-06T11:04:09;101177.56;;;11.43;44.23
84967;BME280;75275;51.348;12.358;2024-03-06T11:06:38;101175.13;;;11.20;45.69
84967;BME280;75275;51.348;12.358;2024-03-06T11:09:05;101181.81;;;11.29;45.66
84967;BME280;75275;51.348;12.358;2024-03-06T11:11:48;101181.09;;;11.39;46.37
84967;BME280;75275;51.348;12.358;2024-03-06T11:14:17;101186.06;;;11.69;45.77
84967;BME280;75275;51.348;12.358;2024-03-06T11:17:02;101178.19;;;12.42;44.58
84967;BME280;75275;51.348;12.358;2024-03-06T11:19:29;101181.91;;;12.68;43.28
84967;BME280;75275;51.348;12.358;2024-03-06T11:21:57;101182.38;;;12.55;43.05
84967;BME280;75275;51.348;12.358;2024-03-06T11:24:32;101181.94;;;12.31;43.92
84967;BME280;75275;51.348;12.358;2024-03-06T11:27:02;101182.28;;;11.75;45.26
84967;BME280;75275;51.348;12.358;2024-03-06T11:30:04;101181.81;;;11.56;45.22
84967;BME280;75275;51.348;12.358;2024-03-06T11:32:36;101186.38;;;11.72;45.15
84967;BME280;75275;51.348;12.358;2024-03-06T11:35:04;101183.16;;;12.08;44.84
84967;BME280;75275;51.348;12.358;2024-03-06T11:37:34;101182.44;;;12.22;44.74
84967;BME280;75275;51.348;12.358;2024-03-06T11:40:03;101180.72;;;12.53;43.72
84967;BME280;75275;51.348;12.358;2024-03-06T11:42:35;101176.94;;;12.65;42.67
84967;BME280;75275;51.348;12.358;2024-03-06T11:45:13;101176.34;;;12.58;42.33
84967;BME280;75275;51.348;12.358;2024-03-06T11:47:56;101179.25;;;11.98;43.20
84967;BME280;75275;51.348;12.358;2024-03-06T11:50:27;101184.34;;;11.85;42.38
84967;BME280;75275;51.348;12.358;2024-03-06T11:52:55;101180.63;;;11.74;43.15
84967;BME280;75275;51.348;12.358;2024-03-06T11:55:23;101179.50;;;11.21;44.40
84967;BME280;75275;51.348;12.358;2024-03-06T11:57:52;101186.78;;;11.32;45.20
84967;BME280;75275;51.348;12.358;2024-03-06T12:00:21;101185.88;;;11.48;44.62
84967;BME280;75275;51.348;12.358;2024-03-06T12:02:49;101184.25;;;11.52;43.86
84967;BME280;75275;51.348;12.358;2024-03-06T12:05:19;101183.56;;;11.94;43.96
84967;BME280;75275;51.348;12.358;2024-03-06T12:07:46;101182.44;;;11.90;42.97
84967;BME280;75275;51.348;12.358;2024-03-06T12:10:13;101175.03;;;11.91;43.53
84967;BME280;75275;51.348;12.358;2024-03-06T12:12:40;101170.59;;;12.17;42.74
84967;BME280;75275;51.348;12.358;2024-03-06T12:15:14;101170.72;;;12.37;42.41
84967;BME280;75275;51.348;12.358;2024-03-06T12:17:43;101172.00;;;12.24;42.59
84967;BME280;75275;51.348;12.358;2024-03-06T12:20:12;101174.41;;;11.56;43.28
84967;BME280;75275;51.348;12.358;2024-03-06T12:22:44;101176.19;;;11.41;44.64
84967;BME280;75275;51.348;12.358;2024-03-06T12:25:18;101172.94;;;11.22;45.58
84967;BME280;75275;51.348;12.358;2024-03-06T12:27:45;101172.22;;;11.04;44.67
84967;BME280;75275;51.348;12.358;2024-03-06T12:30:16;101162.94;;;11.11;45.13
84967;BME280;75275;51.348;12.358;2024-03-06T12:32:43;101171.13;;;11.05;45.30
84967;BME280;75275;51.348;12.358;2024-03-06T12:35:10;101162.09;;;11.10;45.45
84967;BME280;75275;51.348;12.358;2024-03-06T12:37:39;101165.41;;;11.34;46.07
84967;BME280;75275;51.348;12.358;2024-03-06T12:40:08;101170.81;;;11.29;45.19
84967;BME280;75275;51.348;12.358;2024-03-06T12:42:38;101163.34;;;10.97;46.66
84967;BME280;75275;51.348;12.358;2024-03-06T12:45:07;101174.63;;;10.79;45.95
84967;BME280;75275;51.348;12.358;2024-03-06T12:47:37;101172.91;;;10.73;45.43
84967;BME280;75275;51.348;12.358;2024-03-06T12:50:05;101165.00;;;10.76;44.46
84967;BME280;75275;51.348;12.358;2024-03-06T12:52:33;101166.63;;;10.99;44.28
84967;BME280;75275;51.348;12.358;2024-03-06T12:55:00;101160.09;;;11.00;43.08